Terminal Aerodrome Forecast
Issued by NWS

Home | Current Version | Previous Version | Text Only | Print | Product List | Glossary On
Versions: 1 2 3 4 5 6 7 8 9 10 11 12 13 14
000
FTUS46 KSGX 141720
TAFONT
TAF
KONT 141720Z 1418/1524 05025G40KT P6SM SKC
     FM142000 04022G35KT P6SM SKC
     FM150300 04015G25KT P6SM SKC WS010/06025KT
     FM150500 VRB06KT P6SM SKC=

USA.gov is the U.S. government's official web portal to all federal, state and local government web resources and services.